Time;durP1;ratioP1;P1;durP2;ratioP2;P2;SDS_P1;SDS_P2;PMS_P1;PMS_P2;Temp;Humidity;BMP_temperature;BMP_pressure;BME280_temperature;BME280_humidity;BME280_pressure;Samples;Min_cycle;Max_cycle;Signal;HPM_P1;HPM_P2
2023/01/28 00:00:55;;;;;;;5.90;5.40;;;2.90;99.90;;;;;;5025838;28;20903;-73
2023/01/28 00:03:21;;;;;;;5.90;5.20;;;2.80;99.90;;;;;;5047151;28;20448;-73
2023/01/28 00:05:47;;;;;;;6.18;5.40;;;2.30;99.90;;;;;;5031226;28;20459;-72
2023/01/28 00:08:13;;;;;;;7.28;5.47;;;2.60;99.90;;;;;;5048855;28;20927;-71
2023/01/28 00:10:40;;;;;;;5.85;5.30;;;2.80;99.90;;;;;;5045593;28;20421;-73
2023/01/28 00:13:06;;;;;;;5.78;5.28;;;2.90;99.90;;;;;;5046765;28;20532;-72
2023/01/28 00:15:32;;;;;;;5.93;5.35;;;2.50;99.90;;;;;;5046305;28;20425;-72
2023/01/28 00:17:57;;;;;;;5.17;4.73;;;2.60;99.90;;;;;;5047948;28;20421;-73
2023/01/28 00:20:23;;;;;;;4.93;4.53;;;2.60;99.90;;;;;;5031015;28;20433;-72
2023/01/28 00:22:49;;;;;;;5.40;4.90;;;2.40;99.90;;;;;;5048030;28;20808;-74
2023/01/28 00:25:15;;;;;;;5.20;4.80;;;2.40;99.90;;;;;;5047153;28;20436;-73
2023/01/28 00:27:41;;;;;;;5.65;5.15;;;2.50;99.90;;;;;;5030691;28;20425;-75
2023/01/28 00:30:07;;;;;;;5.80;5.30;;;2.30;99.90;;;;;;5046310;28;20430;-73
2023/01/28 00:32:33;;;;;;;6.70;5.40;;;2.40;99.90;;;;;;5021767;28;20413;-77
2023/01/28 00:34:59;;;;;;;5.50;5.00;;;2.40;99.90;;;;;;5048143;28;20444;-72
2023/01/28 00:37:24;;;;;;;5.60;5.05;;;2.50;99.90;;;;;;5048493;28;20512;-73
2023/01/28 00:39:50;;;;;;;5.38;4.45;;;3.10;99.90;;;;;;5029165;28;20935;-72
2023/01/28 00:42:16;;;;;;;10.77;5.75;;;2.50;99.90;;;;;;5026482;28;20437;-73
2023/01/28 00:44:42;;;;;;;6.57;5.45;;;2.70;99.90;;;;;;5030060;28;20433;-73
2023/01/28 00:47:07;;;;;;;5.23;4.80;;;2.70;99.90;;;;;;5029834;28;20537;-75
2023/01/28 00:49:33;;;;;;;4.80;4.40;;;2.70;99.90;;;;;;5047416;28;20416;-72
2023/01/28 00:51:59;;;;;;;5.33;4.17;;;2.60;99.90;;;;;;5030278;28;20409;-72
2023/01/28 00:54:24;;;;;;;5.33;4.93;;;2.60;99.90;;;;;;5027965;28;20425;-73
2023/01/28 00:56:52;;;;;;;6.10;5.50;;;2.60;99.90;;;;;;5027702;28;20433;-73
2023/01/28 00:59:18;;;;;;;6.05;5.55;;;2.50;99.90;;;;;;5045286;28;20831;-73
2023/01/28 01:01:44;;;;;;;5.83;5.30;;;3.00;99.90;;;;;;5045964;28;20475;-73
2023/01/28 01:04:10;;;;;;;5.25;4.75;;;3.00;99.90;;;;;;5045111;28;20465;-72
2023/01/28 01:06:38;;;;;;;6.35;4.85;;;2.60;99.90;;;;;;5029329;28;20437;-73
2023/01/28 01:09:06;;;;;;;5.20;4.60;;;2.70;99.90;;;;;;5029816;28;20477;-75
2023/01/28 01:11:32;;;;;;;4.38;3.97;;;2.50;99.90;;;;;;5030064;28;20444;-72
2023/01/28 01:13:59;;;;;;;5.00;4.50;;;2.50;99.90;;;;;;5044824;28;20461;-73
2023/01/28 01:16:28;;;;;;;4.68;4.18;;;2.50;99.90;;;;;;5028057;28;20474;-73
2023/01/28 01:18:55;;;;;;;4.40;4.00;;;2.50;99.90;;;;;;5031694;28;20509;-72
2023/01/28 01:21:24;;;;;;;4.60;4.10;;;2.50;99.90;;;;;;5046881;28;20500;-73
2023/01/28 01:23:50;;;;;;;4.55;4.15;;;2.60;99.90;;;;;;5046818;28;20433;-75
2023/01/28 01:26:16;;;;;;;4.68;4.25;;;3.00;99.90;;;;;;5048445;28;20401;-72
2023/01/28 01:28:42;;;;;;;4.45;4.05;;;2.70;99.90;;;;;;5044572;28;20428;-73
2023/01/28 01:31:13;;;;;;;5.33;4.13;;;2.80;99.90;;;;;;5047257;28;20893;-72
2023/01/28 01:33:40;;;;;;;6.00;4.57;;;2.80;99.90;;;;;;5039627;28;20417;-72
2023/01/28 01:36:06;;;;;;;4.60;4.13;;;2.60;99.90;;;;;;5030489;28;20432;-72
2023/01/28 01:38:32;;;;;;;4.90;4.50;;;2.60;99.90;;;;;;5046590;28;20414;-72
2023/01/28 01:41:00;;;;;;;5.38;4.88;;;2.60;99.90;;;;;;5013720;28;20765;-72
2023/01/28 01:44:04;;;;;;;5.43;4.93;;;2.60;99.90;;;;;;5027174;28;20421;-75
2023/01/28 01:46:36;;;;;;;4.30;4.00;;;2.50;99.90;;;;;;5048304;28;20409;-74
2023/01/28 01:49:18;;;;;;;4.53;4.10;;;2.50;99.90;;;;;;5030708;28;20784;-72
2023/01/28 01:51:47;;;;;;;4.10;3.65;;;2.60;99.90;;;;;;5029068;28;20429;-74
2023/01/28 01:54:15;;;;;;;5.10;3.60;;;2.70;99.90;;;;;;5033344;28;20492;-73
2023/01/28 01:56:44;;;;;;;4.95;4.45;;;2.80;99.90;;;;;;5047279;28;20512;-74
2023/01/28 01:59:14;;;;;;;6.55;4.75;;;4.20;99.90;;;;;;5027648;28;20949;-72
2023/01/28 02:01:40;;;;;;;4.53;4.13;;;2.70;99.90;;;;;;5044396;28;20433;-73
2023/01/28 02:04:13;;;;;;;5.55;4.47;;;2.80;99.90;;;;;;5106935;22;20441;-69
2023/01/28 02:06:39;;;;;;;6.95;4.45;;;2.80;99.90;;;;;;5028490;28;20449;-69
2023/01/28 02:09:21;;;;;;;5.40;4.90;;;3.90;99.90;;;;;;5040576;28;20517;-69
2023/01/28 02:11:47;;;;;;;4.53;4.13;;;2.90;99.90;;;;;;5046010;28;20521;-69
2023/01/28 02:14:13;;;;;;;7.93;4.80;;;3.10;99.90;;;;;;5044322;28;20432;-69
2023/01/28 02:16:38;;;;;;;4.72;4.18;;;2.80;99.90;;;;;;5046928;28;20421;-68
2023/01/28 02:19:06;;;;;;;6.50;4.30;;;2.70;99.90;;;;;;5041585;28;21004;-70
2023/01/28 02:22:02;;;;;;;4.55;4.13;;;2.90;99.90;;;;;;5041042;28;20425;-69
2023/01/28 02:24:58;;;;;;;3.80;3.40;;;2.90;99.90;;;;;;5042196;28;20421;-70
2023/01/28 02:27:36;;;;;;;8.10;5.00;;;2.90;99.90;;;;;;5047077;28;21185;-69
2023/01/28 02:30:19;;;;;;;5.40;3.92;;;2.60;99.90;;;;;;5042802;28;20424;-69
2023/01/28 02:32:53;;;;;;;3.53;3.22;;;2.70;99.90;;;;;;5044342;28;20440;-69
2023/01/28 02:35:34;;;;;;;3.65;3.35;;;2.70;99.90;;;;;;5038905;28;20430;-69
2023/01/28 02:38:11;;;;;;;3.63;3.00;;;3.00;99.90;;;;;;5044956;28;20856;-69
2023/01/28 02:41:05;;;;;;;3.20;2.90;;;2.50;99.90;;;;;;5045547;28;20717;-69
2023/01/28 02:43:40;;;;;;;3.80;3.20;;;2.80;99.90;;;;;;5040808;28;20432;-69
2023/01/28 02:49:31;;;;;;;3.60;3.15;;;4.50;99.90;;;;;;5046043;28;20564;-68
2023/01/28 02:52:12;;;;;;;3.27;2.97;;;2.90;99.90;;;;;;5031835;28;20480;-69
2023/01/28 02:54:58;;;;;;;4.27;3.30;;;2.90;99.90;;;;;;5041448;28;20514;-70
2023/01/28 02:57:24;;;;;;;3.75;3.13;;;2.80;99.90;;;;;;5034352;28;20441;-69
2023/01/28 03:00:09;;;;;;;3.78;3.33;;;2.70;99.90;;;;;;5042110;28;20425;-69
2023/01/28 03:02:35;;;;;;;4.18;3.88;;;2.80;99.90;;;;;;5045537;28;20437;-69
2023/01/28 03:05:00;;;;;;;4.20;3.80;;;2.80;99.90;;;;;;5044389;28;20420;-69
2023/01/28 03:07:30;;;;;;;3.83;3.23;;;2.80;99.90;;;;;;5031954;28;20433;-69
2023/01/28 03:09:57;;;;;;;4.82;3.80;;;2.80;99.90;;;;;;5044874;28;20503;-70
2023/01/28 03:38:19;;;;;;;3.95;3.58;;;2.70;99.90;;;;;;5047484;28;20440;-68
2023/01/28 03:41:00;;;;;;;3.87;3.10;;;2.70;99.90;;;;;;5048461;28;20504;-68
2023/01/28 03:43:27;;;;;;;4.18;3.63;;;2.80;99.90;;;;;;5047972;28;20903;-68
2023/01/28 03:45:54;;;;;;;4.70;4.10;;;2.80;99.90;;;;;;5029940;28;20420;-68
2023/01/28 03:48:21;;;;;;;5.85;3.47;;;2.80;99.90;;;;;;5044770;28;20429;-69
2023/01/28 03:50:48;;;;;;;5.22;3.65;;;3.60;99.90;;;;;;5042539;28;20763;-69
2023/01/28 03:53:14;;;;;;;3.88;3.58;;;2.80;99.90;;;;;;5049238;28;20421;-69
2023/01/28 03:55:44;;;;;;;5.00;4.50;;;2.70;99.90;;;;;;5013705;28;20762;-68
2023/01/28 03:58:11;;;;;;;4.47;4.07;;;4.00;99.90;;;;;;5049505;28;20778;-69
2023/01/28 04:00:40;;;;;;;3.97;3.65;;;2.90;99.90;;;;;;5046668;28;20432;-68
2023/01/28 04:03:14;;;;;;;4.57;3.85;;;2.70;99.90;;;;;;5041296;28;20830;-69
2023/01/28 04:05:42;;;;;;;4.40;4.00;;;2.60;99.90;;;;;;5044376;28;20482;-69
2023/01/28 04:08:08;;;;;;;4.80;4.13;;;2.70;99.90;;;;;;5049622;28;20796;-69
2023/01/28 04:10:33;;;;;;;4.13;3.60;;;2.60;99.90;;;;;;5047522;28;20482;-68
2023/01/28 04:12:59;;;;;;;4.27;3.87;;;2.70;99.90;;;;;;5029730;28;20788;-68
2023/01/28 04:15:25;;;;;;;4.50;4.10;;;2.70;99.90;;;;;;5042842;28;20512;-69
2023/01/28 04:17:50;;;;;;;4.97;4.47;;;2.60;99.90;;;;;;5047463;28;20432;-69
2023/01/28 04:20:16;;;;;;;4.97;4.47;;;2.70;99.90;;;;;;5046427;28;20436;-69
2023/01/28 04:22:42;;;;;;;4.80;4.40;;;3.10;99.90;;;;;;5047613;28;20414;-69
2023/01/28 04:25:08;;;;;;;5.68;4.07;;;2.60;99.90;;;;;;5047195;28;20433;-69
2023/01/28 04:27:34;;;;;;;5.40;4.70;;;2.70;99.90;;;;;;5047229;28;20438;-70
2023/01/28 04:30:00;;;;;;;4.65;4.10;;;2.60;99.90;;;;;;5049472;28;20429;-69
2023/01/28 04:32:25;;;;;;;5.10;4.32;;;2.70;99.90;;;;;;5043184;28;20482;-69
2023/01/28 04:34:51;;;;;;;5.38;4.53;;;2.50;99.90;;;;;;5044961;28;20904;-69
2023/01/28 04:37:17;;;;;;;4.53;4.10;;;2.50;99.90;;;;;;5047642;28;20448;-70
2023/01/28 04:39:42;;;;;;;4.93;4.43;;;2.50;99.90;;;;;;5038245;28;20422;-69
2023/01/28 04:42:08;;;;;;;5.47;4.97;;;2.40;99.90;;;;;;5036705;28;20434;-70
2023/01/28 04:44:34;;;;;;;4.93;4.43;;;2.30;99.90;;;;;;5032554;28;20885;-70
2023/01/28 04:46:59;;;;;;;5.70;4.97;;;2.40;99.90;;;;;;5048047;28;20432;-69
2023/01/28 04:49:25;;;;;;;5.45;4.95;;;2.40;99.90;;;;;;5044307;28;20429;-69
2023/01/28 04:51:51;;;;;;;5.45;4.70;;;2.40;99.90;;;;;;5037850;28;20424;-68
2023/01/28 04:54:16;;;;;;;6.95;4.75;;;3.10;99.90;;;;;;5044855;28;20425;-69
2023/01/28 04:56:42;;;;;;;5.63;4.05;;;2.40;99.90;;;;;;5047210;28;20436;-69
2023/01/28 04:59:07;;;;;;;4.88;4.00;;;2.40;99.90;;;;;;5038938;28;20428;-69
2023/01/28 05:01:33;;;;;;;6.60;4.68;;;2.40;99.90;;;;;;5047084;28;20491;-68
2023/01/28 05:04:04;;;;;;;4.43;4.03;;;2.40;99.90;;;;;;5046828;28;20775;-69
2023/01/28 05:06:33;;;;;;;5.25;3.95;;;2.30;99.90;;;;;;5045399;28;20473;-68
2023/01/28 05:08:58;;;;;;;6.00;4.27;;;2.40;99.90;;;;;;5045607;28;20457;-68
2023/01/28 05:11:24;;;;;;;7.10;4.55;;;2.30;99.90;;;;;;5048282;28;20487;-69
2023/01/28 05:13:50;;;;;;;4.18;3.78;;;2.20;99.90;;;;;;5046563;28;20417;-69
2023/01/28 05:16:16;;;;;;;4.80;4.30;;;2.20;99.90;;;;;;5046157;28;20947;-69
2023/01/28 05:18:42;;;;;;;4.45;3.65;;;2.10;99.90;;;;;;5045402;28;20425;-69
2023/01/28 05:21:08;;;;;;;4.47;4.07;;;2.20;99.90;;;;;;5047596;28;20428;-68
2023/01/28 05:23:33;;;;;;;4.20;3.80;;;2.00;99.90;;;;;;5047771;28;20930;-70
2023/01/28 05:25:59;;;;;;;5.18;4.07;;;2.10;99.90;;;;;;5045972;28;20417;-69
2023/01/28 05:28:25;;;;;;;4.60;4.20;;;2.20;99.90;;;;;;5031048;28;20924;-69
2023/01/28 05:30:50;;;;;;;4.88;4.40;;;2.50;99.90;;;;;;5038854;28;20504;-69
2023/01/28 05:33:16;;;;;;;4.93;4.43;;;2.20;99.90;;;;;;5045859;28;20480;-68
2023/01/28 05:35:42;;;;;;;4.73;4.33;;;2.20;99.90;;;;;;5043022;28;20515;-69
2023/01/28 05:38:08;;;;;;;4.73;4.33;;;2.60;99.90;;;;;;5047341;28;20488;-70
2023/01/28 05:40:34;;;;;;;5.40;4.43;;;2.20;99.90;;;;;;5053304;28;20515;-69
2023/01/28 05:42:59;;;;;;;4.88;4.30;;;2.30;99.90;;;;;;5032507;28;20528;-69
2023/01/28 05:45:25;;;;;;;5.05;4.55;;;2.30;99.90;;;;;;5045371;28;20464;-68
2023/01/28 05:47:51;;;;;;;5.47;4.97;;;2.20;99.90;;;;;;5035968;28;20470;-68
2023/01/28 05:50:17;;;;;;;5.05;4.50;;;2.20;99.90;;;;;;5041827;28;20820;-69
2023/01/28 05:52:43;;;;;;;6.40;5.20;;;2.20;99.90;;;;;;5043371;28;20507;-69
2023/01/28 05:55:09;;;;;;;5.03;4.57;;;2.20;99.90;;;;;;5040265;28;20427;-68
2023/01/28 05:57:35;;;;;;;5.17;4.67;;;2.30;99.90;;;;;;5044338;28;20425;-69
2023/01/28 06:00:01;;;;;;;5.80;5.30;;;2.60;99.90;;;;;;5047564;28;20432;-69
2023/01/28 06:02:26;;;;;;;5.38;4.90;;;2.40;99.90;;;;;;5045110;28;20430;-69
2023/01/28 06:04:52;;;;;;;5.93;4.57;;;2.30;99.90;;;;;;5032845;28;20845;-68
2023/01/28 06:07:19;;;;;;;4.82;4.35;;;2.30;99.90;;;;;;5044443;28;20509;-68
2023/01/28 06:09:46;;;;;;;5.10;4.65;;;2.30;99.90;;;;;;5044825;28;20421;-68
2023/01/28 06:12:12;;;;;;;5.32;4.82;;;2.20;99.90;;;;;;5043432;28;20919;-69
2023/01/28 06:14:38;;;;;;;5.60;5.10;;;2.20;99.90;;;;;;5046646;28;20723;-69
2023/01/28 06:17:03;;;;;;;5.10;4.47;;;2.50;99.90;;;;;;5040983;28;20433;-71
2023/01/28 06:19:29;;;;;;;5.27;4.80;;;2.20;99.90;;;;;;5034588;28;20781;-70
2023/01/28 06:21:55;;;;;;;6.00;4.83;;;2.10;99.90;;;;;;5042961;28;20852;-69
2023/01/28 06:24:20;;;;;;;5.40;4.90;;;2.20;99.90;;;;;;5045393;28;20780;-69
2023/01/28 06:26:46;;;;;;;5.07;4.67;;;3.40;99.90;;;;;;5044523;28;20430;-69
2023/01/28 06:29:11;;;;;;;5.43;4.93;;;2.20;99.90;;;;;;5046683;28;20765;-70
2023/01/28 06:31:37;;;;;;;6.97;5.23;;;2.20;99.90;;;;;;5043672;28;20799;-69
2023/01/28 06:34:03;;;;;;;5.17;4.77;;;2.10;99.90;;;;;;5033413;28;20457;-69
2023/01/28 06:36:29;;;;;;;5.00;4.60;;;2.00;99.90;;;;;;5031624;28;20509;-69
2023/01/28 06:38:55;;;;;;;5.32;4.82;;;2.10;99.90;;;;;;5029193;28;20428;-68
2023/01/28 06:41:21;;;;;;;5.18;4.60;;;2.10;99.90;;;;;;5044624;28;20935;-69
2023/01/28 06:43:46;;;;;;;5.40;4.90;;;2.10;99.90;;;;;;5044344;28;20432;-69
2023/01/28 06:46:12;;;;;;;5.85;5.25;;;2.10;99.90;;;;;;5045170;28;20425;-68
2023/01/28 06:48:38;;;;;;;5.80;5.30;;;2.10;99.90;;;;;;5045457;28;20449;-68
2023/01/28 06:51:04;;;;;;;5.22;4.72;;;2.10;99.90;;;;;;5042809;28;20534;-70
2023/01/28 06:53:29;;;;;;;5.50;5.00;;;2.10;99.90;;;;;;5027747;28;20467;-68
2023/01/28 06:55:55;;;;;;;6.90;5.33;;;2.10;99.90;;;;;;5043261;28;20516;-69
2023/01/28 06:58:21;;;;;;;5.40;4.90;;;2.20;99.90;;;;;;5043024;28;20432;-69
2023/01/28 07:00:46;;;;;;;5.33;4.83;;;2.20;99.90;;;;;;5045739;28;20425;-69
2023/01/28 07:03:12;;;;;;;6.37;5.13;;;2.10;99.90;;;;;;5040470;28;20434;-69
2023/01/28 07:05:38;;;;;;;7.73;5.50;;;2.90;99.90;;;;;;5040635;28;20425;-69
2023/01/28 07:08:04;;;;;;;6.33;5.07;;;2.20;99.90;;;;;;5046296;28;20420;-70
2023/01/28 07:10:29;;;;;;;6.05;5.03;;;2.10;99.90;;;;;;5045587;28;20439;-70
2023/01/28 07:12:55;;;;;;;5.43;4.93;;;2.10;99.90;;;;;;5043906;28;20432;-68
2023/01/28 07:15:21;;;;;;;5.93;5.43;;;2.10;99.90;;;;;;5046405;28;20421;-69
2023/01/28 07:17:46;;;;;;;5.50;4.93;;;2.40;99.90;;;;;;5044082;28;20520;-69
2023/01/28 07:20:14;;;;;;;5.65;5.05;;;2.00;99.90;;;;;;5044964;28;20479;-69
2023/01/28 07:22:42;;;;;;;5.63;5.13;;;1.90;99.90;;;;;;5046214;28;20482;-69
2023/01/28 07:25:09;;;;;;;5.60;5.10;;;3.30;99.90;;;;;;5044294;28;20477;-68
2023/01/28 07:27:35;;;;;;;6.15;5.55;;;1.80;99.90;;;;;;5043425;28;20421;-69
2023/01/28 07:30:00;;;;;;;6.40;5.30;;;1.80;99.90;;;;;;5046598;28;20421;-69
2023/01/28 07:32:26;;;;;;;5.55;5.05;;;1.80;99.90;;;;;;5032244;28;20423;-69
2023/01/28 07:34:52;;;;;;;6.32;4.78;;;1.80;99.90;;;;;;5028878;28;20422;-69
2023/01/28 07:37:19;;;;;;;5.32;4.82;;;1.70;99.90;;;;;;5031015;28;20476;-69
2023/01/28 07:39:44;;;;;;;6.15;5.55;;;1.60;99.90;;;;;;5031009;28;20426;-70
2023/01/28 07:42:10;;;;;;;5.73;5.23;;;1.60;99.90;;;;;;5034880;28;20440;-69
2023/01/28 07:44:36;;;;;;;6.80;5.63;;;1.50;99.90;;;;;;5043122;28;20447;-69
2023/01/28 07:47:03;;;;;;;7.32;6.30;;;1.50;99.90;;;;;;5035691;28;20433;-70
2023/01/28 07:49:44;;;;;;;6.22;5.63;;;1.40;99.90;;;;;;5041395;28;20427;-69
2023/01/28 07:52:11;;;;;;;6.38;5.78;;;1.50;99.90;;;;;;5042953;28;20437;-69
2023/01/28 07:54:36;;;;;;;7.25;5.95;;;1.50;99.90;;;;;;5040169;28;20491;-69
2023/01/28 07:57:08;;;;;;;7.47;6.68;;;1.40;99.90;;;;;;5043785;28;20437;-70
2023/01/28 07:59:35;;;;;;;8.77;7.38;;;1.50;99.90;;;;;;5051269;28;20423;-69
2023/01/28 08:02:00;;;;;;;7.93;6.75;;;1.50;99.90;;;;;;5032687;28;20436;-68
2023/01/28 08:04:26;;;;;;;9.73;6.32;;;1.50;99.90;;;;;;5040665;28;20429;-69
2023/01/28 08:06:52;;;;;;;6.63;5.93;;;1.50;99.90;;;;;;5043311;28;20430;-69
2023/01/28 08:09:18;;;;;;;5.93;5.40;;;1.50;99.90;;;;;;5045450;28;20449;-68
2023/01/28 08:11:43;;;;;;;6.70;5.90;;;1.80;99.90;;;;;;5045399;28;20516;-69
2023/01/28 08:14:10;;;;;;;6.53;5.63;;;1.50;99.90;;;;;;5043667;28;20512;-69
2023/01/28 08:16:36;;;;;;;6.50;5.75;;;1.60;99.90;;;;;;5034352;28;20435;-69
2023/01/28 08:19:01;;;;;;;6.78;6.07;;;1.60;99.90;;;;;;5046277;28;20448;-68
2023/01/28 08:21:27;;;;;;;6.35;5.75;;;1.70;99.90;;;;;;5045992;28;20425;-70
2023/01/28 08:23:54;;;;;;;6.22;5.70;;;1.80;99.90;;;;;;5047521;28;20425;-68
2023/01/28 08:26:19;;;;;;;7.25;6.47;;;1.80;99.90;;;;;;5049476;28;20560;-69
2023/01/28 08:28:45;;;;;;;7.78;6.35;;;1.90;99.90;;;;;;5036673;28;20839;-69
2023/01/28 08:31:11;;;;;;;7.43;6.73;;;1.90;99.90;;;;;;5046139;28;20560;-68
2023/01/28 08:33:36;;;;;;;8.00;7.20;;;1.90;99.90;;;;;;5052890;28;20416;-70
2023/01/28 08:36:05;;;;;;;7.83;7.07;;;1.90;99.90;;;;;;5048101;28;20514;-70
2023/01/28 08:38:31;;;;;;;28.00;8.15;;;2.10;99.90;;;;;;5047686;28;20418;-69
2023/01/28 08:40:58;;;;;;;8.00;7.20;;;2.10;99.90;;;;;;5046094;28;20933;-69
2023/01/28 08:43:24;;;;;;;8.00;7.25;;;2.10;99.90;;;;;;5045314;28;20432;-69
2023/01/28 08:45:50;;;;;;;7.90;7.20;;;2.20;99.90;;;;;;5045563;28;20421;-69
2023/01/28 08:48:17;;;;;;;9.02;7.55;;;2.30;99.90;;;;;;5048032;28;20421;-69
2023/01/28 08:50:43;;;;;;;8.43;7.73;;;2.70;99.90;;;;;;5047292;28;20417;-68
2023/01/28 08:53:15;;;;;;;8.07;6.57;;;2.20;99.90;;;;;;5056863;28;20429;-69
2023/01/28 08:55:41;;;;;;;7.90;7.10;;;2.10;99.90;;;;;;5043818;28;20429;-69
2023/01/28 08:58:10;;;;;;;7.72;7.03;;;2.20;99.90;;;;;;5044274;28;20479;-68
2023/01/28 09:00:37;;;;;;;7.28;6.53;;;2.40;99.90;;;;;;5048457;28;20837;-70
2023/01/28 09:03:03;;;;;;;7.78;7.05;;;2.40;99.90;;;;;;5061846;28;20421;-69
2023/01/28 09:05:30;;;;;;;7.72;7.03;;;2.30;99.90;;;;;;5047255;28;20433;-68
2023/01/28 09:07:59;;;;;;;8.30;7.28;;;3.30;99.90;;;;;;5046864;28;20428;-68
2023/01/28 09:10:25;;;;;;;8.77;7.88;;;2.40;99.90;;;;;;5055464;28;20445;-68
2023/01/28 09:12:50;;;;;;;9.02;7.63;;;2.40;99.90;;;;;;5043605;28;20456;-68
2023/01/28 09:15:16;;;;;;;8.85;7.95;;;2.50;99.90;;;;;;5047701;28;20436;-68
2023/01/28 09:17:42;;;;;;;9.73;8.68;;;2.50;99.90;;;;;;5044418;28;20930;-68
2023/01/28 09:20:09;;;;;;;8.53;7.73;;;2.80;99.90;;;;;;5045937;28;20425;-70
2023/01/28 09:22:35;;;;;;;8.48;7.68;;;2.30;99.90;;;;;;5044560;28;20775;-69
2023/01/28 09:25:00;;;;;;;7.83;7.13;;;2.40;99.90;;;;;;5046248;28;20529;-69
2023/01/28 09:27:26;;;;;;;8.23;7.43;;;2.50;99.90;;;;;;5045810;28;20422;-68
2023/01/28 09:29:51;;;;;;;7.93;7.23;;;2.50;99.90;;;;;;5042810;28;20915;-68
2023/01/28 09:32:17;;;;;;;8.33;7.53;;;2.50;99.90;;;;;;5045165;28;21112;-69
2023/01/28 09:34:43;;;;;;;8.52;7.50;;;2.60;99.90;;;;;;5047382;28;20503;-68
2023/01/28 09:37:10;;;;;;;9.85;7.22;;;2.70;99.90;;;;;;5045502;28;20441;-69
2023/01/28 09:39:36;;;;;;;8.93;7.75;;;3.10;99.90;;;;;;5045778;28;20508;-69
2023/01/28 09:42:14;;;;;;;12.20;8.35;;;2.90;99.90;;;;;;5046007;28;20806;-68
2023/01/28 09:44:53;;;;;;;8.07;7.38;;;3.00;99.90;;;;;;5044517;28;20428;-69
2023/01/28 09:47:32;;;;;;;7.95;7.25;;;3.10;99.90;;;;;;5046707;28;20798;-68
2023/01/28 09:50:03;;;;;;;9.52;8.63;;;3.00;99.90;;;;;;5044190;28;20433;-68
2023/01/28 09:52:38;;;;;;;8.57;7.77;;;3.30;99.90;;;;;;5042421;28;20519;-68
2023/01/28 09:55:13;;;;;;;8.67;7.70;;;3.20;99.90;;;;;;5041933;28;20432;-69
2023/01/28 09:58:10;;;;;;;8.52;7.22;;;3.30;99.90;;;;;;5038786;28;20440;-68
2023/01/28 10:01:01;;;;;;;8.13;7.43;;;3.20;99.90;;;;;;5029773;28;20514;-69
2023/01/28 10:03:35;;;;;;;8.60;7.80;;;3.20;99.90;;;;;;5031290;28;20431;-67
2023/01/28 10:06:25;;;;;;;8.27;7.30;;;3.50;99.90;;;;;;5036388;28;20437;-68
2023/01/28 10:09:23;;;;;;;10.05;7.15;;;3.60;99.90;;;;;;5042192;28;20452;-69
2023/01/28 10:12:04;;;;;;;8.80;6.55;;;3.50;99.90;;;;;;5035639;28;20433;-68
2023/01/28 10:14:57;;;;;;;7.30;6.60;;;3.30;99.90;;;;;;5040497;28;20427;-69
2023/01/28 10:17:26;;;;;;;7.28;6.68;;;3.30;99.90;;;;;;5046010;28;20564;-69
2023/01/28 10:20:19;;;;;;;6.93;6.32;;;3.20;99.90;;;;;;5028655;28;20477;-69
2023/01/28 10:22:54;;;;;;;7.87;7.17;;;3.20;99.90;;;;;;5040430;28;20429;-68
2023/01/28 10:25:24;;;;;;;7.15;6.55;;;3.40;99.90;;;;;;5042644;28;20443;-69
2023/01/28 10:27:50;;;;;;;8.20;6.90;;;4.00;99.90;;;;;;5042542;28;20432;-69
2023/01/28 10:30:28;;;;;;;8.35;7.65;;;3.70;99.90;;;;;;5033605;28;20434;-68
2023/01/28 10:33:09;;;;;;;8.70;7.43;;;4.00;99.90;;;;;;5033524;28;20426;-69
2023/01/28 10:35:40;;;;;;;8.10;7.30;;;4.20;99.90;;;;;;5040607;28;20436;-70
2023/01/28 10:38:09;;;;;;;7.23;6.50;;;4.60;99.90;;;;;;5041668;28;20438;-70
2023/01/28 10:40:35;;;;;;;7.28;6.28;;;4.10;99.90;;;;;;5038738;28;20414;-69
2023/01/28 10:43:02;;;;;;;7.35;6.38;;;4.00;99.90;;;;;;5042966;28;20433;-70
2023/01/28 10:45:34;;;;;;;7.00;6.30;;;4.40;99.90;;;;;;5039617;28;20417;-69
2023/01/28 10:48:07;;;;;;;7.28;6.43;;;4.70;99.90;;;;;;5040987;28;20429;-69
2023/01/28 10:50:34;;;;;;;7.30;6.60;;;4.10;99.90;;;;;;5031380;28;20421;-69
2023/01/28 10:53:06;;;;;;;7.32;6.63;;;4.10;99.90;;;;;;5034983;28;20434;-69
2023/01/28 10:55:49;;;;;;;7.13;6.40;;;4.20;99.90;;;;;;5058318;28;20453;-69
2023/01/28 10:58:22;;;;;;;7.47;6.68;;;4.20;99.90;;;;;;5042694;28;20440;-69
2023/01/28 11:00:58;;;;;;;7.55;6.80;;;4.40;99.90;;;;;;5038225;28;20413;-69
2023/01/28 11:03:29;;;;;;;8.00;7.20;;;4.40;99.90;;;;;;5043197;28;20904;-69
2023/01/28 11:05:57;;;;;;;7.80;7.03;;;4.60;99.90;;;;;;5041633;28;20804;-69
2023/01/28 11:08:25;;;;;;;9.80;7.82;;;4.70;99.90;;;;;;5025711;28;20415;-69
2023/01/28 11:10:52;;;;;;;7.70;7.00;;;4.60;99.90;;;;;;5032752;28;20409;-70
2023/01/28 11:13:23;;;;;;;8.73;7.40;;;4.90;99.90;;;;;;5027305;28;20454;-69
2023/01/28 11:16:00;;;;;;;8.15;7.07;;;4.70;99.90;;;;;;5041155;28;20429;-69
2023/01/28 11:18:29;;;;;;;8.07;7.00;;;4.60;99.90;;;;;;5047774;28;20486;-69
2023/01/28 11:21:02;;;;;;;7.90;6.95;;;4.70;99.90;;;;;;5042464;28;20425;-69
2023/01/28 11:23:50;;;;;;;8.98;6.95;;;4.50;99.90;;;;;;5036458;28;20464;-69
2023/01/28 11:26:21;;;;;;;8.82;7.45;;;4.60;99.90;;;;;;5032952;28;20413;-69
2023/01/28 11:28:47;;;;;;;9.05;7.82;;;5.50;99.90;;;;;;5037572;28;20433;-69
2023/01/28 11:31:15;;;;;;;9.40;7.50;;;4.80;99.90;;;;;;5043694;28;20791;-69
2023/01/28 11:33:53;;;;;;;10.15;6.95;;;4.60;99.90;;;;;;5042897;28;20474;-70
2023/01/28 11:36:24;;;;;;;7.43;6.70;;;4.50;99.90;;;;;;5027304;28;20485;-69
2023/01/28 11:38:52;;;;;;;7.88;6.78;;;4.70;99.90;;;;;;5031484;28;20423;-70
2023/01/28 11:41:24;;;;;;;7.83;7.03;;;5.00;99.90;;;;;;5027796;28;20758;-69
2023/01/28 11:43:50;;;;;;;9.57;8.57;;;4.80;99.90;;;;;;5017718;28;20415;-70
2023/01/28 11:46:18;;;;;;;7.63;6.80;;;4.80;99.90;;;;;;5042636;28;20402;-69
2023/01/28 11:49:01;;;;;;;8.20;7.10;;;4.60;99.90;;;;;;5042434;28;20454;-69
2023/01/28 11:51:49;;;;;;;7.43;6.72;;;4.80;99.90;;;;;;5043085;28;20417;-71
2023/01/28 11:54:36;;;;;;;7.80;7.00;;;4.70;99.90;;;;;;5042468;28;20460;-69
2023/01/28 11:57:32;;;;;;;9.40;7.95;;;4.80;99.90;;;;;;5018095;28;20431;-69
2023/01/28 12:00:09;;;;;;;8.88;7.05;;;4.90;99.90;;;;;;5029828;28;20919;-69
2023/01/28 12:02:44;;;;;;;9.20;7.05;;;5.30;99.90;;;;;;5044068;28;20428;-69
2023/01/28 12:05:21;;;;;;;10.73;7.85;;;5.00;99.90;;;;;;5060287;28;20439;-69
2023/01/28 12:07:52;;;;;;;11.63;7.28;;;4.90;99.90;;;;;;5046266;28;20505;-69
2023/01/28 12:10:36;;;;;;;7.60;6.82;;;5.10;99.90;;;;;;5046359;28;20828;-68
2023/01/28 12:13:05;;;;;;;8.82;7.57;;;5.00;99.90;;;;;;5041200;28;20437;-69
2023/01/28 12:15:56;;;;;;;9.90;8.23;;;4.70;99.90;;;;;;5047797;28;20429;-69
2023/01/28 12:18:26;;;;;;;7.78;7.00;;;4.80;99.90;;;;;;5049179;28;20425;-70
2023/01/28 12:21:07;;;;;;;12.60;7.47;;;4.70;99.90;;;;;;5049872;28;20484;-70
2023/01/28 12:23:38;;;;;;;7.97;6.40;;;4.60;99.90;;;;;;5048443;28;20425;-68
2023/01/28 12:26:29;;;;;;;9.23;7.63;;;4.50;99.90;;;;;;5048111;28;20447;-68
2023/01/28 12:29:36;;;;;;;10.20;6.90;;;4.50;99.90;;;;;;5056571;28;20457;-69
2023/01/28 12:32:21;;;;;;;9.75;7.20;;;4.60;99.90;;;;;;5048083;28;20950;-69
2023/01/28 12:35:31;;;;;;;8.35;7.03;;;4.70;99.90;;;;;;5047695;28;20512;-70
2023/01/28 12:38:06;;;;;;;7.63;6.85;;;4.90;99.90;;;;;;4986922;28;20449;-70
2023/01/28 12:40:54;;;;;;;8.30;7.50;;;6.90;99.90;;;;;;5034571;28;20496;-69
2023/01/28 12:43:21;;;;;;;7.80;7.00;;;4.90;99.90;;;;;;5046751;28;20799;-70
2023/01/28 12:45:57;;;;;;;7.95;6.75;;;4.80;99.90;;;;;;5048275;28;20783;-69
2023/01/28 12:48:26;;;;;;;8.52;6.95;;;4.80;99.90;;;;;;5048956;28;20433;-70
2023/01/28 12:51:15;;;;;;;7.20;6.30;;;4.90;99.90;;;;;;5047758;28;20428;-69
2023/01/28 12:53:55;;;;;;;8.27;7.38;;;5.00;99.90;;;;;;5045197;28;20488;-70
2023/01/28 12:56:44;;;;;;;7.70;6.90;;;5.20;99.90;;;;;;5044071;28;20453;-69
2023/01/28 12:59:34;;;;;;;7.80;6.60;;;5.20;99.90;;;;;;5029354;28;20403;-70
2023/01/28 13:02:13;;;;;;;7.97;6.15;;;5.20;99.90;;;;;;5045788;28;20432;-70
2023/01/28 13:04:48;;;;;;;8.50;6.50;;;5.40;99.90;;;;;;5038439;28;20434;-69
2023/01/28 13:07:24;;;;;;;7.15;5.93;;;3.70;99.90;;;;;;5047376;28;20429;-69
2023/01/28 13:10:03;;;;;;;9.63;6.13;;;5.40;99.90;;;;;;5047503;28;20416;-69
2023/01/28 13:12:30;;;;;;;6.68;5.97;;;5.80;99.90;;;;;;5026868;28;20430;-70
2023/01/28 13:14:57;;;;;;;6.45;5.10;;;5.50;99.90;;;;;;5028946;28;20411;-70
2023/01/28 13:17:27;;;;;;;7.10;5.68;;;5.30;99.90;;;;;;5027471;28;20433;-70
2023/01/28 13:19:53;;;;;;;9.30;6.63;;;6.00;99.90;;;;;;5028643;28;20404;-68
2023/01/28 13:22:28;;;;;;;9.45;6.95;;;5.10;99.90;;;;;;5042555;28;20440;-69
2023/01/28 13:24:54;;;;;;;7.25;6.53;;;5.10;99.90;;;;;;5048082;28;20412;-69
2023/01/28 13:27:25;;;;;;;7.47;6.43;;;5.10;99.90;;;;;;5046286;28;20795;-69
2023/01/28 13:30:06;;;;;;;8.90;7.00;;;5.20;99.90;;;;;;5046861;28;20923;-69
2023/01/28 13:32:35;;;;;;;9.03;6.77;;;5.30;99.90;;;;;;5047152;28;20705;-70
2023/01/28 13:35:05;;;;;;;9.07;7.00;;;6.00;99.90;;;;;;5046525;28;20482;-70
2023/01/28 13:37:39;;;;;;;9.05;7.43;;;5.30;99.90;;;;;;5048274;28;20437;-69
2023/01/28 13:40:14;;;;;;;9.32;7.60;;;5.40;99.90;;;;;;5046844;28;20413;-69
2023/01/28 13:42:40;;;;;;;10.93;8.00;;;5.30;99.90;;;;;;5040528;28;21167;-70